McKinley Park, Alaska
Current Conditions -  °F | °C
As of 1:36 PM on Friday 24 Oct 2014 (Local Time) from PAIN Reporting Station
Overcast Overcast  
Wind Chill: 27°   Ceiling: 2100
Heat Index: 27°   Visibility: 3mi
Dew Point: 25°   Wind: 0mph
Humidity: 93%   Direction: NA
Pressure: 29.79"   Gusts: NA
Location:  63.73°N, 148.91°W
Report Text: PAIN 242136Z AUTO 00000KT 3SM FEW014 BKN021 OVC028 M03/M04 A2979 RMK AO1 VIS 2V4 P0001
Loading
Personal Weather Stations






























Interactive Weather Map
Tropical Storm Tracking
New forecast layout! Learn more

10-Day Weather Forecast

Advertisements
Track Severe Weather on mobile